Airfield :
LOGIN :

Register | Disclaimer

   EN    FR    IT 

 










Legend :    VFR   Marginal VFR   IFR   Intensive IFR   Very Intensive IFR
Visi :
Ceiling :
>= 8 km
>= 3000ft
5 to 8 km
1000 to 3000 ft
1500m to 5 km
500 to 1000 ft
800 to 1500m
200 to 500 ft
< 800m
< 200 ft
Symbols :   Thunderstorms  Fog  Heavy snow  Heavy precipitations  Wind > 20 kt
SIGMETs :     Misc.  Thunderstorms  Icing  Turbulence  Mountain Waves  Volcanic Ashes







- Airport Elevation : 2220 ft


LOXZ - Zeltweg AB

CURRENT METAR :
  • 121150Z 28010KT 25KM FEW040SC SCT060SC BKN110AC 01/M04 Q1018 NOSIG

EXPIRED METARs :
  • 121120Z 29011KT 15KM FEW040SC SCT065SC BKN110AC 01/M04 Q1018 NOSIG
  • 121050Z 28010KT 12KM FEW040SC SCT070SC BKN110AC 01/M04 Q1018 NOSIG
  • 120950Z 27011KT 15KM 7000W -SHSN FEW010ST BKN110AC 00/M04 Q1018 NOSIG
  • 120920Z 27013KT 15KM 8000W VCSH FEW012ST BKN110AC 00/M04 Q1018 NOSIG

TAF TAF LOXZ
Valid from the 12 at 12:00 until the 12 at 21:00 UTC


121115Z 1212/1221 28015KT 9999 FEW040 SCT070 BKN120
TEMPO 1212/1215 5000 -SHSN FEW010 SCT030 BKN050
No reported NOTAMs for that airfield.



MET'MAP, your aeronautical weather chart ! - Copyright ORBIFLY December 2007 - Disclaimer

ORBIFLY MET'MAP TEAM :

Programming & Development : Alexandra Zaïnal
Concept & Development : Baudouin d'Aumeries
Co-Development & Prog : Marc-Olivier Méhu
Technical & hardware support : Manuel Goepfert

Contact : metmap@orbifly.com




SOURCES & CREDITS :

   NOAA